aviador You're here:

LFOA Decoded Metar

AVORD in FRANCE
Report Time2017-11-22 05:30:00
UTC Time2017-11-22 05:38:12
Flight Rules vfr VFR
Wind070° at 03 kt
W.Decomp.*RWY 06: 3.0 kt HW 0.5 kt RCW
W.Rank070° ranks 19
Current wind is below 070° avg. (5.6)
Visibility9999 m
Phenomena:N/A
Clouds:N/A
CeilingNone
Temp02°C (ISA -12)
Dew Point02°C (100% RH)
AAT-0.8°C
QNH1013 hPa
Density Alt-751 ft
Elevation587 ft
Report Wrong Elevation
Raw Report
METAR LFOA 220530Z AUTO 07003KT CAVOK 02/02 Q1013=

Extra information for LFOA:More info

Metar Taf Metar & Taf Last 4 Metars F.Rules Stats Wind Profile Meteogram Temp Stats Airport Information Weather charts Add Link Nearby VenuesMetar ALERT Operation Metar Decoded Social comments